createdAt,value
2017-04-21T00:00:58.584Z,22.02
2017-04-21T00:01:58.658Z,24.15
2017-04-21T00:02:58.804Z,23.73
2017-04-21T00:03:58.902Z,22.17
2017-04-21T00:04:59.040Z,21.93
2017-04-21T00:05:59.239Z,20.77
2017-04-21T00:06:59.345Z,21.30
2017-04-21T00:07:59.514Z,23.60
2017-04-21T00:08:59.527Z,23.95
2017-04-21T00:09:59.568Z,22.30
2017-04-21T00:10:59.645Z,22.32
2017-04-21T00:11:59.719Z,23.65
2017-04-21T00:12:59.753Z,21.48
2017-04-21T00:13:59.812Z,22.83
2017-04-21T00:14:59.947Z,23.52
2017-04-21T00:16:00.030Z,24.25
2017-04-21T00:17:00.109Z,24.07
2017-04-21T00:18:00.173Z,22.82
2017-04-21T00:19:01.047Z,23.25
2017-04-21T00:20:01.134Z,23.28
2017-04-21T00:21:01.173Z,23.10
2017-04-21T00:22:02.026Z,25.53
2017-04-21T00:23:02.331Z,24.20
2017-04-21T00:24:02.409Z,23.60
2017-04-21T00:25:02.490Z,24.15
2017-04-21T00:26:02.559Z,25.52
2017-04-21T00:27:02.664Z,23.10
2017-04-21T00:28:02.739Z,25.03
2017-04-21T00:29:02.873Z,23.73
2017-04-21T00:30:02.976Z,24.90
2017-04-21T00:31:03.081Z,25.87
2017-04-21T00:32:03.119Z,24.53
2017-04-21T00:33:03.160Z,25.08
2017-04-21T00:34:03.206Z,24.37
2017-04-21T00:35:03.304Z,24.67
2017-04-21T00:36:03.357Z,23.85
2017-04-21T00:37:03.413Z,23.28
2017-04-21T00:38:03.441Z,24.28
2017-04-21T00:39:03.495Z,23.98
2017-04-21T00:40:03.724Z,24.08
2017-04-21T00:41:03.921Z,25.10
2017-04-21T00:42:04.049Z,23.93
2017-04-21T00:43:04.154Z,24.28
2017-04-21T00:44:04.212Z,25.03
2017-04-21T00:45:05.386Z,24.42
2017-04-21T00:46:05.481Z,23.87
2017-04-21T00:47:05.522Z,23.48
2017-04-21T00:48:05.637Z,25.00
2017-04-21T00:49:05.710Z,24.78
2017-04-21T00:50:05.754Z,24.28
2017-04-21T00:51:12.033Z,23.85
2017-04-21T00:52:12.087Z,23.23
2017-04-21T00:53:12.379Z,23.43
2017-04-21T00:54:13.266Z,23.65
2017-04-21T00:55:13.389Z,24.25
2017-04-21T00:56:13.434Z,23.83
2017-04-21T00:57:13.518Z,22.80
2017-04-21T00:58:13.742Z,23.90
2017-04-21T00:59:13.789Z,23.88
2017-04-21T01:00:13.867Z,23.83
2017-04-21T01:01:14.672Z,22.87
2017-04-21T01:02:14.713Z,24.80
2017-04-21T01:03:14.838Z,23.60
2017-04-21T01:04:14.998Z,25.00
2017-04-21T01:05:15.065Z,23.30
2017-04-21T01:06:15.143Z,23.85
2017-04-21T01:07:15.196Z,25.02
2017-04-21T01:08:15.356Z,24.05
2017-04-21T01:09:15.402Z,25.15
2017-04-21T01:10:15.478Z,22.90
2017-04-21T01:11:15.552Z,26.08
2017-04-21T01:12:15.597Z,25.30
2017-04-21T01:13:15.624Z,24.90
2017-04-21T01:14:15.745Z,23.90
2017-04-21T01:15:15.834Z,25.05
2017-04-21T01:16:15.870Z,24.20
2017-04-21T01:17:15.957Z,24.33
2017-04-21T01:18:16.035Z,24.73
2017-04-21T01:19:16.062Z,24.70
2017-04-21T01:20:16.101Z,24.35
2017-04-21T01:21:16.182Z,23.58
2017-04-21T01:22:16.244Z,24.97
2017-04-21T01:23:17.018Z,25.98
2017-04-21T01:24:17.073Z,25.38
2017-04-21T01:25:17.126Z,24.05
2017-04-21T01:26:17.216Z,25.02
2017-04-21T01:27:17.244Z,24.42
2017-04-21T01:28:17.354Z,25.60
2017-04-21T01:29:17.383Z,23.67
2017-04-21T01:30:17.494Z,24.20
2017-04-21T01:31:17.578Z,25.65
2017-04-21T01:32:17.628Z,24.10
2017-04-21T01:33:17.721Z,26.22
2017-04-21T01:34:17.788Z,24.85
2017-04-21T01:35:17.857Z,25.67
2017-04-21T01:36:18.001Z,26.93
2017-04-21T01:37:18.092Z,25.35
2017-04-21T01:38:18.235Z,26.52
2017-04-21T01:39:18.447Z,29.07
2017-04-21T01:40:18.566Z,26.20
2017-04-21T01:41:18.601Z,26.98
2017-04-21T01:42:18.677Z,26.55
2017-04-21T01:43:18.718Z,25.53
2017-04-21T01:44:18.784Z,26.07
2017-04-21T01:45:18.924Z,25.93
2017-04-21T01:46:19.074Z,24.93
2017-04-21T01:47:19.239Z,26.05
2017-04-21T01:48:19.281Z,25.47
2017-04-21T01:49:20.195Z,26.05
2017-04-21T01:50:20.307Z,26.87
2017-04-21T01:51:20.402Z,26.22
2017-04-21T01:52:20.565Z,25.52
2017-04-21T01:53:20.797Z,25.10
2017-04-21T01:54:20.865Z,25.33
2017-04-21T01:55:21.291Z,25.22
2017-04-21T01:56:21.288Z,26.03
2017-04-21T01:57:21.378Z,24.77
2017-04-21T01:58:21.527Z,27.05
2017-04-21T01:59:21.563Z,25.72
2017-04-21T02:00:22.143Z,25.50
2017-04-21T02:01:22.221Z,24.72
2017-04-21T02:02:22.428Z,27.12
2017-04-21T02:03:22.477Z,26.53
2017-04-21T02:04:22.525Z,25.35
2017-04-21T02:05:22.874Z,26.40
2017-04-21T02:06:22.914Z,27.33
2017-04-21T02:07:22.966Z,26.97
2017-04-21T02:08:22.997Z,27.93
2017-04-21T02:09:23.065Z,28.32
2017-04-21T02:10:23.505Z,26.92
2017-04-21T02:11:23.615Z,29.57
2017-04-21T02:12:23.684Z,27.43
2017-04-21T02:13:23.752Z,28.07
2017-04-21T02:14:23.852Z,28.10
2017-04-21T02:15:24.023Z,29.03
2017-04-21T02:16:24.077Z,27.18
2017-04-21T02:17:24.153Z,28.22
2017-04-21T02:18:24.226Z,26.25
2017-04-21T02:19:25.057Z,27.85
2017-04-21T02:20:25.550Z,29.22
2017-04-21T02:21:25.680Z,29.93
2017-04-21T02:22:25.774Z,27.85
2017-04-21T02:23:25.821Z,29.00
2017-04-21T02:24:25.859Z,28.13
2017-04-21T02:25:26.299Z,28.02
2017-04-21T02:26:26.328Z,27.58
2017-04-21T02:27:27.214Z,29.13
2017-04-21T02:28:27.285Z,29.92
2017-04-21T02:29:27.333Z,28.43
2017-04-21T02:30:27.497Z,30.75
2017-04-21T02:31:27.548Z,27.28
2017-04-21T02:32:27.644Z,27.98
2017-04-21T02:33:27.702Z,29.85
2017-04-21T02:34:27.801Z,28.70
2017-04-21T02:35:28.264Z,29.30
2017-04-21T02:36:28.367Z,30.78
2017-04-21T02:37:28.412Z,29.98
2017-04-21T02:38:28.514Z,31.48
2017-04-21T02:39:28.652Z,29.55
2017-04-21T02:40:28.960Z,29.68
2017-04-21T02:41:29.017Z,30.20
2017-04-21T02:42:29.083Z,31.07
2017-04-21T02:43:29.217Z,31.98
2017-04-21T02:44:29.314Z,29.85
2017-04-21T02:45:29.758Z,30.33
2017-04-21T02:46:29.822Z,29.53
2017-04-21T02:47:29.861Z,30.43
2017-04-21T02:48:29.945Z,34.02
2017-04-21T02:49:30.013Z,29.77
2017-04-21T02:50:30.811Z,33.83
2017-04-21T02:51:30.992Z,31.17
2017-04-21T02:52:31.115Z,31.80
2017-04-21T02:53:31.170Z,29.35
2017-04-21T02:54:31.264Z,31.92
2017-04-21T02:55:31.484Z,31.67
2017-04-21T02:56:31.569Z,32.83
2017-04-21T02:57:31.717Z,30.48
2017-04-21T02:58:31.784Z,32.22
2017-04-21T02:59:31.876Z,31.02
2017-04-21T03:00:32.212Z,32.73
2017-04-21T03:01:32.354Z,33.65
2017-04-21T03:02:32.454Z,33.88
2017-04-21T03:03:32.561Z,32.95
2017-04-21T03:04:33.425Z,31.77
2017-04-21T03:05:33.813Z,34.45
2017-04-21T03:06:33.854Z,32.57
2017-04-21T03:07:33.923Z,33.78
2017-04-21T03:08:33.951Z,33.95
2017-04-21T03:09:34.029Z,35.05
2017-04-21T03:10:34.392Z,33.05
2017-04-21T03:11:34.503Z,33.82
2017-04-21T03:12:34.542Z,35.32
2017-04-21T03:13:34.598Z,35.90
2017-04-21T03:14:35.030Z,34.93
2017-04-21T03:15:35.366Z,37.28
2017-04-21T03:16:35.617Z,35.12
2017-04-21T03:17:36.395Z,33.55
2017-04-21T03:18:36.454Z,35.60
2017-04-21T03:19:36.570Z,36.15
2017-04-21T03:20:36.913Z,37.37
2017-04-21T03:21:36.990Z,36.73
2017-04-21T03:22:37.746Z,35.50
2017-04-21T03:23:37.867Z,36.60
2017-04-21T03:24:37.944Z,38.47
2017-04-21T03:25:38.254Z,36.05
2017-04-21T03:26:38.355Z,36.07
2017-04-21T03:27:38.483Z,37.15
2017-04-21T03:28:38.543Z,37.80
2017-04-21T03:29:38.573Z,37.50
2017-04-21T03:30:38.921Z,36.07
2017-04-21T03:31:39.009Z,39.90
2017-04-21T03:32:39.045Z,39.00
2017-04-21T03:33:39.091Z,38.73
2017-04-21T03:34:39.215Z,37.68
2017-04-21T03:35:39.534Z,38.70
2017-04-21T03:36:40.298Z,36.98
2017-04-21T03:37:40.305Z,38.57
2017-04-21T03:38:40.343Z,38.62
2017-04-21T03:39:40.349Z,41.07
2017-04-21T03:40:40.392Z,38.90
2017-04-21T03:41:40.477Z,40.95
2017-04-21T03:42:40.547Z,41.37
2017-04-21T03:43:40.601Z,40.73
2017-04-21T03:44:41.378Z,41.40
2017-04-21T03:45:41.419Z,41.97
2017-04-21T03:46:41.518Z,40.07
2017-04-21T03:47:41.723Z,41.58
2017-04-21T03:48:41.810Z,43.80
2017-04-21T03:49:41.833Z,39.70
2017-04-21T03:50:41.898Z,40.75
2017-04-21T03:51:42.017Z,41.50
2017-04-21T03:52:42.106Z,41.30
2017-04-21T03:53:42.334Z,41.38
2017-04-21T03:54:42.373Z,41.80
2017-04-21T03:56:06.614Z,43.90
2017-04-21T03:57:07.723Z,40.63
2017-04-21T03:58:08.520Z,40.20
2017-04-21T03:59:08.587Z,43.27
2017-04-21T04:00:08.612Z,41.70
2017-04-21T04:01:08.670Z,42.93
2017-04-21T04:02:09.459Z,43.37
2017-04-21T04:03:09.571Z,42.43
2017-04-21T04:04:09.590Z,40.98
2017-04-21T04:05:09.677Z,42.70
2017-04-21T04:06:10.227Z,45.70
2017-04-21T04:07:10.465Z,42.53
2017-04-21T04:08:10.498Z,41.30
2017-04-21T04:09:10.520Z,40.42
2017-04-21T04:10:10.590Z,43.70
2017-04-21T04:11:10.674Z,43.10
2017-04-21T04:12:10.704Z,41.42
2017-04-21T04:13:10.813Z,43.97
2017-04-21T04:14:10.858Z,41.08
2017-04-21T04:15:10.881Z,42.53
2017-04-21T04:16:11.166Z,44.60
2017-04-21T04:17:11.217Z,45.50
2017-04-21T04:18:11.259Z,44.47
2017-04-21T04:19:11.464Z,44.95
2017-04-21T04:20:11.591Z,46.65
2017-04-21T04:21:11.741Z,45.35
2017-04-21T04:22:11.981Z,45.03
2017-04-21T04:23:12.820Z,44.30
2017-04-21T04:24:12.891Z,44.03
2017-04-21T04:25:12.962Z,45.95
2017-04-21T04:26:13.007Z,44.45
2017-04-21T04:27:13.733Z,43.97
2017-04-21T04:28:13.888Z,43.68
2017-04-21T04:29:13.914Z,43.90
2017-04-21T04:30:14.062Z,45.90
2017-04-21T04:31:14.210Z,41.87
2017-04-21T04:32:14.344Z,43.77
2017-04-21T04:33:14.414Z,45.52
2017-04-21T04:34:14.445Z,47.62
2017-04-21T04:35:14.463Z,44.60
2017-04-21T04:36:14.521Z,46.70
2017-04-21T04:37:15.331Z,42.77
2017-04-21T04:38:15.353Z,43.72
2017-04-21T04:39:16.122Z,44.42
2017-04-21T04:40:16.154Z,44.03
2017-04-21T04:41:16.187Z,45.25
2017-04-21T04:42:16.207Z,45.72
2017-04-21T04:43:16.210Z,43.43
2017-04-21T04:44:16.403Z,45.10
2017-04-21T04:45:16.513Z,44.18
2017-04-21T04:46:16.621Z,44.92
2017-04-21T04:47:16.687Z,47.73
2017-04-21T04:48:16.735Z,45.97
2017-04-21T04:49:17.136Z,45.32
2017-04-21T04:50:17.155Z,44.18
2017-04-21T04:51:17.178Z,44.82
2017-04-21T04:52:17.269Z,44.00
2017-04-21T04:53:17.266Z,42.80
2017-04-21T04:54:17.316Z,44.13
2017-04-21T04:55:17.341Z,44.73
2017-04-21T04:56:17.827Z,46.40
2017-04-21T04:57:18.802Z,46.13
2017-04-21T04:58:18.846Z,45.20
2017-04-21T04:59:18.923Z,45.23
2017-04-21T05:00:20.036Z,44.20
2017-04-21T05:01:20.414Z,45.00
2017-04-21T05:02:21.149Z,43.55
2017-04-21T05:03:21.979Z,44.13
2017-04-21T05:04:22.864Z,44.95
2017-04-21T05:05:22.980Z,43.08
2017-04-21T05:06:30.086Z,45.13
2017-04-21T05:07:30.187Z,44.98
2017-04-21T05:08:30.238Z,44.30
2017-04-21T05:09:30.272Z,43.40
2017-04-21T05:10:30.345Z,45.67
2017-04-21T05:11:30.729Z,45.78
2017-04-21T05:12:31.600Z,41.67
2017-04-21T05:13:31.662Z,43.52
2017-04-21T05:14:32.521Z,46.10
2017-04-21T05:15:32.585Z,43.97
2017-04-21T05:16:33.731Z,44.77
2017-04-21T05:17:34.498Z,42.12
2017-04-21T05:18:34.581Z,41.93
2017-04-21T05:19:34.668Z,44.32
2017-04-21T05:20:36.914Z,44.97
2017-04-21T05:21:37.339Z,42.40
2017-04-21T05:22:37.424Z,45.07
2017-04-21T05:23:37.500Z,42.87
2017-04-21T05:24:37.632Z,44.27
2017-04-21T05:25:37.622Z,44.47
2017-04-21T05:26:37.991Z,42.63
2017-04-21T05:27:38.811Z,42.67
2017-04-21T05:28:39.582Z,44.27
2017-04-21T05:29:39.641Z,43.63
2017-04-21T05:30:41.857Z,43.58
2017-04-21T05:31:42.231Z,41.78
2017-04-21T05:32:42.450Z,41.23
2017-04-21T05:33:42.515Z,42.55
2017-04-21T05:34:42.549Z,43.32
2017-04-21T05:35:43.338Z,40.07
2017-04-21T05:36:43.791Z,42.93
2017-04-21T05:37:43.887Z,43.67
2017-04-21T05:38:43.903Z,41.37
2017-04-21T05:39:44.756Z,42.85
2017-04-21T05:40:44.802Z,41.88
2017-04-21T05:41:45.147Z,40.62
2017-04-21T05:42:45.259Z,42.10
2017-04-21T05:43:46.005Z,43.08
2017-04-21T05:44:46.035Z,42.93
2017-04-21T05:45:46.050Z,41.80
2017-04-21T05:46:46.393Z,43.58
2017-04-21T05:47:46.938Z,42.12
2017-04-21T05:48:46.999Z,42.83
2017-04-21T05:49:47.079Z,43.47
2017-04-21T05:50:47.110Z,43.23
2017-04-21T05:51:47.681Z,42.45
2017-04-21T05:52:47.689Z,42.40
2017-04-21T05:53:47.727Z,41.65
2017-04-21T05:54:47.769Z,42.18
2017-04-21T05:55:47.825Z,40.33
2017-04-21T05:56:48.234Z,43.03
2017-04-21T05:57:48.317Z,41.25
2017-04-21T05:58:49.119Z,42.10
2017-04-21T05:59:49.142Z,41.07
2017-04-21T06:00:49.218Z,40.40
2017-04-21T06:01:49.627Z,44.38
2017-04-21T06:02:49.685Z,40.38
2017-04-21T06:03:50.422Z,42.88
2017-04-21T06:04:50.410Z,41.75
2017-04-21T06:05:51.616Z,44.43
2017-04-21T06:06:52.034Z,43.72
2017-04-21T06:07:52.083Z,43.58
2017-04-21T06:08:52.115Z,42.87
2017-04-21T06:09:52.151Z,43.45
2017-04-21T06:10:52.246Z,42.10
2017-04-21T06:11:52.845Z,42.57
2017-04-21T06:12:52.981Z,44.40
2017-04-21T06:13:53.057Z,42.53
2017-04-21T06:14:53.079Z,43.10
2017-04-21T06:15:53.151Z,43.75
2017-04-21T06:16:54.244Z,42.02
2017-04-21T06:17:54.340Z,44.23
2017-04-21T06:18:54.499Z,43.08
2017-04-21T06:19:55.334Z,41.33
2017-04-21T06:20:56.115Z,44.23
2017-04-21T06:21:56.572Z,41.12
2017-04-21T06:22:56.710Z,43.55
2017-04-21T06:23:56.853Z,41.90
2017-04-21T06:24:56.871Z,42.38
2017-04-21T06:25:56.976Z,43.60
2017-04-21T06:26:58.317Z,43.75
2017-04-21T06:27:58.486Z,42.58
2017-04-21T06:28:58.819Z,43.53
2017-04-21T06:29:58.901Z,44.05
2017-04-21T06:30:58.918Z,41.98
2017-04-21T06:31:59.394Z,41.58
2017-04-21T06:33:00.197Z,41.23
2017-04-21T06:34:00.369Z,44.50
2017-04-21T06:35:00.482Z,45.82
2017-04-21T06:36:00.849Z,45.20
2017-04-21T06:37:01.995Z,45.22
2017-04-21T06:38:02.786Z,43.08
2017-04-21T06:39:03.312Z,40.65
2017-04-21T06:40:03.399Z,41.38
2017-04-21T06:41:03.524Z,41.92
2017-04-21T06:42:03.975Z,43.97
2017-04-21T06:43:04.035Z,42.42
2017-04-21T06:44:04.063Z,42.63
2017-04-21T06:45:04.076Z,42.88
2017-04-21T06:46:04.117Z,45.77
2017-04-21T06:47:04.570Z,43.90
2017-04-21T06:48:19.267Z,42.08
2017-04-21T06:49:20.463Z,41.87
2017-04-21T06:50:21.837Z,42.63
2017-04-21T06:51:22.655Z,42.25
2017-04-21T06:52:25.734Z,40.80
2017-04-21T06:53:26.510Z,41.75
2017-04-21T06:54:28.601Z,41.17
2017-04-21T06:55:30.263Z,41.95
2017-04-21T06:56:31.088Z,42.43
2017-04-21T06:57:32.054Z,41.08
2017-04-21T06:58:34.458Z,43.75
2017-04-21T06:59:35.646Z,41.13
2017-04-21T07:00:35.691Z,41.85
2017-04-21T07:01:35.717Z,41.93
2017-04-21T07:02:58.726Z,43.27
2017-04-21T07:03:58.973Z,40.73
2017-04-21T07:04:59.061Z,40.83
2017-04-21T07:05:59.161Z,43.55
2017-04-21T07:07:00.118Z,41.30
2017-04-21T07:08:01.536Z,44.63
2017-04-21T07:09:01.596Z,43.48
2017-04-21T07:10:01.896Z,42.05
2017-04-21T07:11:02.654Z,41.97
2017-04-21T07:12:02.854Z,41.05
2017-04-21T07:13:02.954Z,43.87
2017-04-21T07:14:03.108Z,41.73
2017-04-21T07:15:03.232Z,41.43
2017-04-21T07:16:03.347Z,41.70
2017-04-21T07:17:03.436Z,41.42
2017-04-21T07:18:04.347Z,39.33
2017-04-21T07:19:13.462Z,41.37
2017-04-21T07:20:13.759Z,40.70
2017-04-21T07:21:13.906Z,41.40
2017-04-21T07:22:14.779Z,39.88
2017-04-21T07:23:14.860Z,38.93
2017-04-21T07:24:15.006Z,39.57
2017-04-21T07:25:24.961Z,39.63
2017-04-21T07:26:25.093Z,38.07
2017-04-21T07:27:25.470Z,39.43
2017-04-21T07:28:26.890Z,39.23
2017-04-21T07:29:47.131Z,38.45
2017-04-21T07:31:04.641Z,39.93
2017-04-21T07:32:06.453Z,40.45
2017-04-21T07:33:38.955Z,43.23
2017-04-21T07:34:38.994Z,39.68
2017-04-21T07:36:39.276Z,39.57
2017-04-21T07:37:39.363Z,38.38
2017-04-21T07:39:50.747Z,40.13
2017-04-21T07:40:52.940Z,39.18
2017-04-21T07:41:52.966Z,40.62
2017-04-21T07:42:53.611Z,38.32
2017-04-21T07:43:54.030Z,42.57
2017-04-21T07:44:54.065Z,41.90
2017-04-21T07:45:55.083Z,39.20
2017-04-21T07:46:55.225Z,40.75
2017-04-21T07:47:55.349Z,41.93
2017-04-21T07:48:55.358Z,43.30
2017-04-21T07:49:55.393Z,40.80
2017-04-21T07:50:55.485Z,40.72
2017-04-21T07:51:56.285Z,42.30
2017-04-21T07:52:56.278Z,40.10
2017-04-21T07:53:56.342Z,39.23
2017-04-21T07:54:56.387Z,39.72
2017-04-21T07:55:56.417Z,40.63
2017-04-21T07:57:16.115Z,38.05
2017-04-21T07:58:18.034Z,38.45
2017-04-21T07:59:32.174Z,40.32
2017-04-21T08:00:32.324Z,40.12
2017-04-21T08:01:33.044Z,39.73
2017-04-21T08:02:53.410Z,40.33
2017-04-21T08:03:57.284Z,38.05
2017-04-21T08:04:58.009Z,38.92
2017-04-21T08:05:58.042Z,36.72
2017-04-21T08:07:00.087Z,38.60
2017-04-21T08:08:01.916Z,39.50
2017-04-21T08:10:14.399Z,38.90
2017-04-21T08:11:14.482Z,40.02
2017-04-21T08:12:19.987Z,39.98
2017-04-21T08:13:20.090Z,38.98
2017-04-21T08:14:20.542Z,37.32
2017-04-21T08:15:20.664Z,37.07
2017-04-21T08:16:20.866Z,39.12
2017-04-21T08:17:20.874Z,37.45
2017-04-21T08:18:20.926Z,37.00
2017-04-21T08:19:21.379Z,34.17
2017-04-21T08:20:22.173Z,38.50
2017-04-21T08:21:22.228Z,34.97
2017-04-21T08:22:22.285Z,34.03
2017-04-21T08:23:22.417Z,31.85
2017-04-21T08:24:23.551Z,32.88
2017-04-21T08:25:24.329Z,34.55
2017-04-21T08:26:24.386Z,33.60
2017-04-21T08:27:25.187Z,32.82
2017-04-21T08:28:25.227Z,31.32
2017-04-21T08:29:26.031Z,30.80
2017-04-21T08:30:26.141Z,33.13
2017-04-21T08:31:26.386Z,30.40
2017-04-21T08:32:26.446Z,30.67
2017-04-21T08:33:26.475Z,32.65
2017-04-21T08:34:26.887Z,33.38
2017-04-21T08:35:26.986Z,32.53
2017-04-21T08:36:27.044Z,30.63
2017-04-21T08:37:27.166Z,32.67
2017-04-21T08:38:27.246Z,30.68
2017-04-21T08:39:27.773Z,31.80
2017-04-21T08:40:27.892Z,32.45
2017-04-21T08:41:28.009Z,32.03
2017-04-21T08:42:28.078Z,30.58
2017-04-21T08:43:28.920Z,31.92
2017-04-21T08:44:29.521Z,30.12
2017-04-21T08:45:30.316Z,32.65
2017-04-21T08:46:30.389Z,31.12
2017-04-21T08:47:30.413Z,30.73
2017-04-21T08:48:30.695Z,32.22
2017-04-21T08:49:30.738Z,32.98
2017-04-21T08:50:30.843Z,31.23
2017-04-21T08:51:30.881Z,31.83
2017-04-21T08:52:30.994Z,31.30
2017-04-21T08:53:31.019Z,31.37
2017-04-21T08:54:32.154Z,30.98
2017-04-21T08:55:32.481Z,32.83
2017-04-21T08:56:32.504Z,31.78
2017-04-21T08:57:32.823Z,29.28
2017-04-21T08:58:32.838Z,30.73
2017-04-21T08:59:34.009Z,31.12
2017-04-21T09:00:34.046Z,31.63
2017-04-21T09:01:34.138Z,29.60
2017-04-21T09:02:34.211Z,29.18
2017-04-21T09:03:34.381Z,30.82
2017-04-21T09:04:34.943Z,30.23
2017-04-21T09:05:34.963Z,30.82
2017-04-21T09:06:35.151Z,30.97
2017-04-21T09:07:35.159Z,31.20
2017-04-21T09:08:35.178Z,27.77
2017-04-21T09:09:35.530Z,29.17
2017-04-21T09:10:36.442Z,30.37
2017-04-21T09:11:37.307Z,30.58
2017-04-21T09:12:37.370Z,30.43
2017-04-21T09:13:37.437Z,28.97
2017-04-21T09:14:37.799Z,26.53
2017-04-21T09:15:37.839Z,26.15
2017-04-21T09:16:37.972Z,27.47
2017-04-21T09:17:38.042Z,27.93
2017-04-21T09:18:38.086Z,27.72
2017-04-21T09:19:38.488Z,28.10
2017-04-21T09:20:38.466Z,28.23
2017-04-21T09:21:38.617Z,26.63
2017-04-21T09:22:38.736Z,26.13
2017-04-21T09:23:38.948Z,26.63
2017-04-21T09:24:39.409Z,27.85
2017-04-21T09:25:40.164Z,26.75
2017-04-21T09:26:40.335Z,28.03
2017-04-21T09:27:41.130Z,26.95
2017-04-21T09:28:41.292Z,27.73
2017-04-21T09:29:41.707Z,26.03
2017-04-21T09:30:41.730Z,24.75
2017-04-21T09:32:41.833Z,24.98
2017-04-21T09:33:29.606Z,25.22
2017-04-21T09:33:41.940Z,24.57
2017-04-21T09:34:42.321Z,23.87
2017-04-21T09:35:42.498Z,23.72
2017-04-21T09:36:42.546Z,22.57
2017-04-21T09:37:43.517Z,25.33
2017-04-21T09:38:43.546Z,24.50
2017-04-21T09:39:43.899Z,27.07
2017-04-21T09:40:57.818Z,25.72
2017-04-21T09:41:58.670Z,25.98
2017-04-21T09:42:59.487Z,26.07
2017-04-21T09:44:05.461Z,25.18
2017-04-21T09:46:21.128Z,26.47
2017-04-21T09:47:21.224Z,27.10
2017-04-21T09:48:22.082Z,26.50
2017-04-21T09:49:22.187Z,27.68
2017-04-21T09:50:53.598Z,28.12
2017-04-21T09:51:22.453Z,25.10
2017-04-21T09:53:46.847Z,26.33
2017-04-21T09:54:41.606Z,25.83
2017-04-21T09:56:03.373Z,25.70
2017-04-21T09:58:43.157Z,25.17
2017-04-21T10:00:06.750Z,25.95
2017-04-21T10:01:22.545Z,26.67
2017-04-21T10:02:01.043Z,24.42
2017-04-21T10:03:07.834Z,24.48
2017-04-21T10:04:07.704Z,25.87
2017-04-21T10:04:46.147Z,25.18
2017-04-21T10:06:12.918Z,24.10
2017-04-21T10:07:40.426Z,23.07
2017-04-21T10:07:42.293Z,22.73
2017-04-21T10:07:53.002Z,23.37
2017-04-21T10:07:57.253Z,23.23
2017-04-21T10:08:28.188Z,22.45
2017-04-21T10:08:33.026Z,22.00
2017-04-21T10:09:29.055Z,22.15
2017-04-21T10:10:29.109Z,22.42
2017-04-21T10:11:29.264Z,22.57
2017-04-21T10:12:30.038Z,21.93
2017-04-21T10:13:30.203Z,23.97
2017-04-21T10:14:30.285Z,21.52
2017-04-21T10:15:30.409Z,23.80
2017-04-21T10:16:31.139Z,23.93
2017-04-21T10:17:31.958Z,23.83
2017-04-21T10:18:33.027Z,23.15
2017-04-21T10:19:33.076Z,24.73
2017-04-21T10:20:33.175Z,22.12
2017-04-21T10:21:33.226Z,22.50
2017-04-21T10:22:34.138Z,22.93
2017-04-21T10:23:34.954Z,24.40
2017-04-21T10:24:34.974Z,22.78
2017-04-21T10:25:35.106Z,23.13
2017-04-21T10:26:35.113Z,25.28
2017-04-21T10:27:35.905Z,23.07
2017-04-21T10:28:35.958Z,22.98
2017-04-21T10:29:36.002Z,23.97
2017-04-21T10:30:36.097Z,24.27
2017-04-21T10:31:36.124Z,23.58
2017-04-21T10:32:36.166Z,23.78
2017-04-21T10:33:36.274Z,24.60
2017-04-21T10:34:36.298Z,23.65
2017-04-21T10:35:36.295Z,23.35
2017-04-21T10:36:36.244Z,21.62
2017-04-21T10:37:36.247Z,22.38
2017-04-21T10:38:36.294Z,21.43
2017-04-21T10:39:37.046Z,22.73
2017-04-21T10:40:37.324Z,21.28
2017-04-21T10:41:38.118Z,21.93
2017-04-21T10:42:38.935Z,23.13
2017-04-21T10:43:38.977Z,22.32
2017-04-21T10:44:39.115Z,22.08
2017-04-21T10:45:39.164Z,22.50
2017-04-21T10:46:39.209Z,23.35
2017-04-21T10:47:40.003Z,21.00
2017-04-21T10:48:39.953Z,22.00
2017-04-21T10:49:40.805Z,21.32
2017-04-21T10:50:40.959Z,21.78
2017-04-21T10:51:40.953Z,19.60
2017-04-21T10:52:41.047Z,20.82
2017-04-21T10:53:41.142Z,20.08
2017-04-21T10:54:41.240Z,19.35
2017-04-21T10:55:41.259Z,18.97
2017-04-21T10:56:41.357Z,19.80
2017-04-21T10:57:41.409Z,18.93
2017-04-21T10:58:41.475Z,17.67
2017-04-21T10:59:41.490Z,17.55
2017-04-21T11:00:41.478Z,18.68
2017-04-21T11:01:41.535Z,18.05
2017-04-21T11:02:41.580Z,19.35
2017-04-21T11:03:41.634Z,16.67
2017-04-21T11:04:41.711Z,17.22
2017-04-21T11:05:41.932Z,17.00
2017-04-21T11:06:41.998Z,17.83
2017-04-21T11:07:42.829Z,16.98
2017-04-21T11:08:43.594Z,16.05
2017-04-21T11:09:43.692Z,17.45
2017-04-21T11:10:43.796Z,15.18
2017-04-21T11:11:43.852Z,13.47
2017-04-21T11:12:43.908Z,14.92
2017-04-21T11:13:43.951Z,15.13
2017-04-21T11:14:44.146Z,15.53
2017-04-21T11:15:44.289Z,15.78
2017-04-21T11:16:44.321Z,15.65
2017-04-21T11:17:45.070Z,15.28
2017-04-21T11:18:45.086Z,13.37
2017-04-21T11:19:45.099Z,15.42
2017-04-21T11:20:45.140Z,14.18
2017-04-21T11:21:45.181Z,14.25
2017-04-21T11:22:45.250Z,15.67
2017-04-21T11:23:45.312Z,14.63
2017-04-21T11:24:45.377Z,14.60
2017-04-21T11:25:45.409Z,14.38
2017-04-21T11:26:46.168Z,14.48
2017-04-21T11:27:46.223Z,14.65
2017-04-21T11:28:46.228Z,14.27
2017-04-21T11:29:47.006Z,15.05
2017-04-21T11:30:47.048Z,14.15
2017-04-21T11:31:47.107Z,14.38
2017-04-21T11:32:47.170Z,14.78
2017-04-21T11:33:47.281Z,15.73
2017-04-21T11:34:47.327Z,15.30
2017-04-21T11:35:47.399Z,14.70
2017-04-21T11:36:47.638Z,15.08
2017-04-21T11:37:47.653Z,13.58
2017-04-21T11:38:47.681Z,14.33
2017-04-21T11:39:47.701Z,14.58
2017-04-21T11:40:48.566Z,14.10
2017-04-21T11:41:49.326Z,14.05
2017-04-21T11:42:49.401Z,13.45
2017-04-21T11:43:50.214Z,13.83
2017-04-21T11:44:50.234Z,14.78
2017-04-21T11:45:51.075Z,14.60
2017-04-21T11:46:51.094Z,13.87
2017-04-21T11:47:51.123Z,14.25
2017-04-21T11:48:51.906Z,14.95
2017-04-21T11:49:52.742Z,13.27
2017-04-21T11:50:52.866Z,14.48
2017-04-21T11:51:58.397Z,14.93
2017-04-21T11:53:02.228Z,14.55
2017-04-21T11:54:04.266Z,15.33
2017-04-21T11:55:07.290Z,15.05
2017-04-21T11:56:08.211Z,15.85
2017-04-21T11:58:19.305Z,15.27
2017-04-21T11:59:19.392Z,15.92
2017-04-21T12:00:24.755Z,15.07
2017-04-21T12:01:26.198Z,15.67
2017-04-21T12:02:26.931Z,15.90
2017-04-21T12:03:26.975Z,15.63
2017-04-21T12:04:26.938Z,16.48
2017-04-21T12:05:26.932Z,17.50
2017-04-21T12:06:26.998Z,15.72
2017-04-21T12:07:26.960Z,16.28
2017-04-21T12:14:36.228Z,17.32
2017-04-21T12:15:39.892Z,18.08
2017-04-21T12:16:43.594Z,18.62
2017-04-21T12:17:44.764Z,19.68
2017-04-21T12:18:45.566Z,20.48
2017-04-21T12:19:47.810Z,19.25
2017-04-21T12:20:51.482Z,18.38
2017-04-21T12:21:52.253Z,19.53
2017-04-21T12:22:53.030Z,18.93
2017-04-21T12:23:54.677Z,20.02
2017-04-21T12:24:55.480Z,20.48
2017-04-21T12:25:55.490Z,20.40
2017-04-21T12:26:55.498Z,19.27
2017-04-21T12:27:55.538Z,18.85
2017-04-21T12:28:56.385Z,18.40
2017-04-21T12:29:56.409Z,18.80
2017-04-21T12:30:56.393Z,19.73
2017-04-21T12:31:56.491Z,18.55
2017-04-21T12:32:56.619Z,20.23
2017-04-21T12:33:56.686Z,19.08
2017-04-21T12:34:57.423Z,20.65
2017-04-21T12:35:58.386Z,19.68
2017-04-21T12:36:58.525Z,19.33
2017-04-21T12:37:58.700Z,19.22
2017-04-21T12:38:58.731Z,18.95
2017-04-21T12:39:58.934Z,20.30
2017-04-21T12:40:59.098Z,17.87
2017-04-21T12:41:59.885Z,19.13
2017-04-21T12:43:00.058Z,17.95
2017-04-21T12:44:00.119Z,16.33
2017-04-21T12:45:00.134Z,17.48
2017-04-21T12:46:00.919Z,16.92
2017-04-21T12:47:00.984Z,16.40
2017-04-21T12:48:01.070Z,16.18
2017-04-21T12:49:01.980Z,14.90
2017-04-21T12:50:02.037Z,15.55
2017-04-21T12:51:02.066Z,16.03
2017-04-21T12:52:02.294Z,16.38
2017-04-21T12:53:02.410Z,15.72
2017-04-21T12:54:02.397Z,17.28
2017-04-21T12:55:02.413Z,16.85
2017-04-21T12:56:03.203Z,18.08
2017-04-21T12:57:03.247Z,17.00
2017-04-21T12:58:04.182Z,17.57
2017-04-21T12:59:04.289Z,17.88
2017-04-21T13:00:04.376Z,19.57
2017-04-21T13:01:04.593Z,20.20
2017-04-21T13:02:04.789Z,20.33
2017-04-21T13:03:04.839Z,18.63
2017-04-21T13:04:05.187Z,20.02
2017-04-21T13:05:06.025Z,20.72
2017-04-21T13:06:06.184Z,19.05
2017-04-21T13:07:06.289Z,21.12
2017-04-21T13:08:06.411Z,21.70
2017-04-21T13:09:06.763Z,21.85
2017-04-21T13:10:06.875Z,22.33
2017-04-21T13:11:06.938Z,23.20
2017-04-21T13:12:07.108Z,23.60
2017-04-21T13:13:07.324Z,24.73